createdAt,value
2019-01-19T00:02:21.031Z,100.00
2019-01-19T00:04:51.229Z,100.00
2019-01-19T00:07:21.278Z,100.00
2019-01-19T00:09:51.507Z,100.00
2019-01-19T00:12:21.186Z,100.00
2019-01-19T00:14:51.306Z,100.00
2019-01-19T00:17:21.277Z,100.00
2019-01-19T00:19:51.713Z,100.00
2019-01-19T00:22:21.649Z,100.00
2019-01-19T00:24:51.519Z,100.00
2019-01-19T00:27:21.517Z,100.00
2019-01-19T00:29:51.702Z,100.00
2019-01-19T00:32:21.104Z,100.00
2019-01-19T00:34:50.694Z,100.00
2019-01-19T00:37:20.231Z,100.00
2019-01-19T00:39:49.639Z,100.00
2019-01-19T00:42:19.235Z,100.00
2019-01-19T00:44:49.802Z,100.00
2019-01-19T00:47:20.518Z,100.00
2019-01-19T00:49:50.587Z,100.00
2019-01-19T00:52:20.307Z,100.00
2019-01-19T00:54:50.263Z,100.00
2019-01-19T00:57:20.248Z,100.00
2019-01-19T00:59:50.124Z,100.00
2019-01-19T01:02:20.325Z,100.00
2019-01-19T01:04:50.769Z,100.00
2019-01-19T01:07:21.109Z,100.00
2019-01-19T01:09:51.149Z,100.00
2019-01-19T01:12:21.286Z,100.00
2019-01-19T01:14:51.342Z,100.00
2019-01-19T01:17:21.726Z,100.00
2019-01-19T01:19:51.994Z,100.00
2019-01-19T01:22:21.764Z,100.00
2019-01-19T01:24:51.388Z,100.00
2019-01-19T01:27:21.693Z,100.00
2019-01-19T01:29:51.804Z,100.00
2019-01-19T01:32:21.712Z,100.00
2019-01-19T01:34:51.650Z,100.00
2019-01-19T01:37:21.755Z,100.00
2019-01-19T01:39:51.885Z,100.00
2019-01-19T01:42:21.729Z,100.00
2019-01-19T01:44:51.412Z,100.00
2019-01-19T01:47:21.688Z,100.00
2019-01-19T01:49:51.931Z,100.00
2019-01-19T01:52:21.936Z,100.00
2019-01-19T01:54:52.283Z,100.00
2019-01-19T01:57:22.384Z,100.00
2019-01-19T01:59:52.731Z,100.00
2019-01-19T02:02:22.751Z,100.00
2019-01-19T02:04:52.825Z,100.00
2019-01-19T02:07:22.983Z,100.00
2019-01-19T02:09:53.116Z,100.00
2019-01-19T02:12:23.102Z,100.00
2019-01-19T02:14:53.109Z,100.00
2019-01-19T02:17:23.044Z,100.00
2019-01-19T02:19:53.106Z,100.00
2019-01-19T02:22:23.676Z,100.00
2019-01-19T02:24:53.629Z,100.00
2019-01-19T02:27:23.704Z,100.00
2019-01-19T02:29:54.034Z,100.00
2019-01-19T02:32:24.688Z,98.85
2019-01-19T02:34:55.070Z,95.81
2019-01-19T02:37:24.979Z,94.50
2019-01-19T02:39:55.701Z,92.40
2019-01-19T02:42:26.251Z,89.44
2019-01-19T02:44:56.678Z,89.06
2019-01-19T02:47:26.831Z,88.48
2019-01-19T02:49:57.030Z,88.00
2019-01-19T02:52:27.415Z,86.01
2019-01-19T02:54:57.768Z,84.28
2019-01-19T02:57:27.993Z,83.30
2019-01-19T02:59:58.586Z,82.37
2019-01-19T03:02:28.562Z,82.77
2019-01-19T03:04:58.692Z,80.65
2019-01-19T03:07:28.831Z,77.48
2019-01-19T03:09:59.553Z,76.42
2019-01-19T03:12:30.040Z,76.36
2019-01-19T03:15:00.274Z,75.51
2019-01-19T03:17:30.267Z,75.68
2019-01-19T03:20:00.432Z,73.98
2019-01-19T03:22:30.561Z,72.77
2019-01-19T03:25:00.543Z,71.89
2019-01-19T03:27:30.677Z,75.31
2019-01-19T03:30:01.604Z,71.41
2019-01-19T03:32:31.432Z,73.50
2019-01-19T03:35:02.280Z,70.73
2019-01-19T03:37:32.903Z,69.92
2019-01-19T03:40:02.667Z,69.13
2019-01-19T03:42:32.755Z,69.44
2019-01-19T03:45:03.138Z,68.55
2019-01-19T03:47:33.843Z,69.39
2019-01-19T03:50:03.775Z,68.38
2019-01-19T03:52:33.416Z,68.58
2019-01-19T03:55:03.562Z,70.44
2019-01-19T03:57:33.423Z,71.24
2019-01-19T04:00:03.658Z,65.60
2019-01-19T04:02:33.731Z,65.35
2019-01-19T04:05:03.726Z,66.07
2019-01-19T04:07:33.792Z,65.95
2019-01-19T04:10:03.509Z,65.30
2019-01-19T04:12:33.666Z,64.80
2019-01-19T04:15:03.220Z,64.73
2019-01-19T04:17:33.563Z,64.09
2019-01-19T04:20:03.474Z,62.35
2019-01-19T04:22:33.095Z,62.85
2019-01-19T04:25:03.698Z,64.06
2019-01-19T04:27:34.150Z,60.60
2019-01-19T04:30:04.249Z,59.55
2019-01-19T04:32:34.435Z,61.90
2019-01-19T04:35:04.746Z,60.86
2019-01-19T04:37:34.740Z,59.48
2019-01-19T04:40:04.317Z,58.24
2019-01-19T04:42:34.262Z,58.35
2019-01-19T04:45:04.339Z,59.02
2019-01-19T04:47:34.490Z,57.12
2019-01-19T04:50:04.619Z,56.19
2019-01-19T04:52:34.639Z,56.60
2019-01-19T04:55:04.766Z,54.95
2019-01-19T04:57:34.749Z,53.14
2019-01-19T05:04:05.001Z,53.90
2019-01-19T05:06:35.543Z,53.48
2019-01-19T05:09:05.639Z,56.95
2019-01-19T05:11:35.603Z,55.86
2019-01-19T05:14:06.216Z,54.11
2019-01-19T05:16:36.199Z,56.86
2019-01-19T05:19:06.212Z,53.43
2019-01-19T05:21:36.241Z,54.05
2019-01-19T05:24:06.172Z,52.14
2019-01-19T05:26:36.114Z,52.19
2019-01-19T05:29:06.583Z,52.02
2019-01-19T05:31:36.343Z,52.54
2019-01-19T05:34:06.558Z,52.97
2019-01-19T05:36:38.550Z,54.05
2019-01-19T05:39:07.227Z,52.45
2019-01-19T05:41:37.443Z,52.05
2019-01-19T05:44:07.724Z,51.85
2019-01-19T05:46:38.429Z,51.50
2019-01-19T05:49:08.564Z,51.16
2019-01-19T05:51:38.565Z,49.64
2019-01-19T05:54:08.670Z,49.71
2019-01-19T05:56:38.434Z,49.63
2019-01-19T05:59:08.841Z,45.49
2019-01-19T06:01:39.280Z,44.47
2019-01-19T06:04:09.298Z,46.33
2019-01-19T06:06:46.562Z,44.94
2019-01-19T06:09:10.824Z,45.86
2019-01-19T06:11:41.194Z,42.41
2019-01-19T06:16:54.629Z,42.49
2019-01-19T06:19:24.873Z,43.97
2019-01-19T06:21:55.238Z,44.38
2019-01-19T06:24:25.086Z,41.04
2019-01-19T06:26:55.400Z,41.47
2019-01-19T06:29:25.425Z,39.94
2019-01-19T06:31:55.862Z,41.34
2019-01-19T06:34:25.669Z,41.78
2019-01-19T06:36:55.871Z,41.96
2019-01-19T06:39:26.403Z,38.87
2019-01-19T06:41:56.805Z,39.38
2019-01-19T06:44:27.078Z,41.44
2019-01-19T06:46:57.619Z,40.48
2019-01-19T06:49:28.134Z,40.32
2019-01-19T06:51:58.403Z,40.24
2019-01-19T06:54:28.825Z,40.64
2019-01-19T06:56:58.786Z,39.46
2019-01-19T06:59:29.116Z,39.16
2019-01-19T07:01:59.352Z,40.51
2019-01-19T07:04:29.440Z,40.73
2019-01-19T07:07:02.810Z,39.88
2019-01-19T07:09:30.275Z,40.37
2019-01-19T07:12:00.623Z,40.60
2019-01-19T07:14:30.755Z,39.96
2019-01-19T07:17:00.875Z,40.11
2019-01-19T07:19:30.985Z,41.43
2019-01-19T07:22:01.135Z,41.03
2019-01-19T07:24:31.434Z,40.92
2019-01-19T07:27:01.465Z,41.03
2019-01-19T07:29:31.545Z,41.00
2019-01-19T07:32:01.671Z,40.01
2019-01-19T07:34:31.803Z,38.61
2019-01-19T07:37:02.145Z,36.84
2019-01-19T07:39:32.185Z,36.78
2019-01-19T07:42:02.273Z,38.32
2019-01-19T07:44:32.649Z,38.46
2019-01-19T07:47:02.811Z,36.69
2019-01-19T07:49:32.970Z,36.98
2019-01-19T07:52:03.204Z,37.41
2019-01-19T07:54:33.364Z,38.38
2019-01-19T07:57:02.991Z,35.96
2019-01-19T07:59:32.802Z,36.94
2019-01-19T08:02:02.912Z,37.51
2019-01-19T08:04:33.284Z,37.03
2019-01-19T08:07:03.458Z,35.48
2019-01-19T08:09:33.593Z,38.68
2019-01-19T08:12:03.845Z,37.26
2019-01-19T08:14:33.668Z,37.77
2019-01-19T08:17:03.992Z,37.13
2019-01-19T08:19:34.452Z,37.55
2019-01-19T08:22:04.579Z,37.41
2019-01-19T08:24:34.266Z,36.79
2019-01-19T08:27:04.654Z,37.63
2019-01-19T08:29:34.535Z,38.09
2019-01-19T08:32:04.842Z,38.09
2019-01-19T08:34:35.081Z,35.79
2019-01-19T08:37:05.702Z,38.02
2019-01-19T08:39:35.490Z,34.17
2019-01-19T08:42:05.735Z,34.08
2019-01-19T08:44:35.861Z,33.82
2019-01-19T08:47:05.877Z,35.51
2019-01-19T08:49:36.332Z,36.41
2019-01-19T08:52:08.951Z,36.11
2019-01-19T08:54:39.690Z,35.75
2019-01-19T08:57:10.140Z,37.25
2019-01-19T08:59:40.196Z,37.20
2019-01-19T09:02:10.260Z,38.03
2019-01-19T09:04:40.409Z,37.55
2019-01-19T09:07:10.417Z,37.63
2019-01-19T09:09:40.626Z,36.54
2019-01-19T09:12:11.124Z,36.11
2019-01-19T09:14:41.955Z,36.81
2019-01-19T09:17:12.326Z,36.53
2019-01-19T09:19:42.242Z,34.20
2019-01-19T09:22:12.835Z,33.48
2019-01-19T09:24:42.913Z,33.61
2019-01-19T09:27:13.113Z,34.16
2019-01-19T09:29:43.405Z,32.62
2019-01-19T09:32:13.844Z,33.08
2019-01-19T09:34:43.874Z,34.99
2019-01-19T09:37:13.930Z,35.89
2019-01-19T09:39:44.109Z,34.18
2019-01-19T09:42:14.442Z,35.57
2019-01-19T09:44:44.853Z,37.73
2019-01-19T09:47:14.917Z,37.46
2019-01-19T09:49:45.013Z,37.00
2019-01-19T09:52:20.986Z,37.36
2019-01-19T09:54:46.396Z,36.95
2019-01-19T09:57:16.800Z,37.16
2019-01-19T09:59:47.019Z,36.93
2019-01-19T10:02:17.606Z,37.04
2019-01-19T10:04:48.003Z,36.47
2019-01-19T10:07:18.421Z,37.17
2019-01-19T10:09:48.304Z,37.35
2019-01-19T10:12:18.436Z,37.97
2019-01-19T10:14:48.429Z,37.57
2019-01-19T10:17:18.701Z,37.56
2019-01-19T10:19:48.371Z,36.24
2019-01-19T10:22:18.329Z,37.23
2019-01-19T10:24:48.363Z,37.10
2019-01-19T10:27:18.323Z,37.26
2019-01-19T10:29:48.003Z,38.03
2019-01-19T10:32:18.044Z,39.24
2019-01-19T10:34:48.473Z,39.83
2019-01-19T10:37:19.014Z,41.00
2019-01-19T10:39:49.134Z,41.64
2019-01-19T10:42:18.937Z,41.54
2019-01-19T10:44:49.051Z,43.18
2019-01-19T10:47:19.229Z,43.50
2019-01-19T10:49:49.456Z,42.83
2019-01-19T10:52:19.607Z,43.46
2019-01-19T10:54:49.617Z,44.67
2019-01-19T10:57:20.003Z,45.18
2019-01-19T10:59:50.106Z,46.80
2019-01-19T11:02:20.196Z,47.67
2019-01-19T11:04:50.563Z,48.45
2019-01-19T11:07:20.396Z,50.32
2019-01-19T11:09:50.243Z,51.39
2019-01-19T11:12:20.492Z,53.38
2019-01-19T11:14:50.603Z,55.82
2019-01-19T11:17:20.771Z,54.87
2019-01-19T11:19:50.766Z,56.60
2019-01-19T11:22:20.977Z,57.33
2019-01-19T11:24:51.241Z,58.92
2019-01-19T11:27:21.152Z,59.39
2019-01-19T11:29:51.417Z,59.24
2019-01-19T11:32:21.551Z,60.13
2019-01-19T11:34:51.562Z,61.73
2019-01-19T11:37:21.959Z,61.96
2019-01-19T11:39:52.114Z,63.61
2019-01-19T11:42:22.028Z,65.43
2019-01-19T11:44:52.232Z,66.26
2019-01-19T11:47:22.289Z,67.44
2019-01-19T11:49:52.286Z,69.47
2019-01-19T11:52:22.138Z,70.13
2019-01-19T11:54:52.102Z,70.61
2019-01-19T11:57:22.309Z,70.39
2019-01-19T11:59:52.384Z,70.68
2019-01-19T12:02:22.357Z,71.35
2019-01-19T12:04:52.432Z,72.43
2019-01-19T12:07:22.303Z,73.93
2019-01-19T12:09:54.297Z,74.63
2019-01-19T12:12:24.363Z,75.84
2019-01-19T12:14:54.789Z,78.53
2019-01-19T12:17:24.910Z,79.54
2019-01-19T12:19:54.945Z,79.83
2019-01-19T12:22:25.051Z,81.16
2019-01-19T12:24:54.660Z,81.84
2019-01-19T12:27:24.848Z,84.22
2019-01-19T12:29:55.001Z,84.79
2019-01-19T12:32:25.010Z,84.44
2019-01-19T12:34:54.952Z,85.07
2019-01-19T12:37:25.173Z,86.23
2019-01-19T12:39:55.071Z,86.71
2019-01-19T12:42:25.409Z,87.27
2019-01-19T12:44:55.125Z,87.36
2019-01-19T12:47:25.171Z,85.78
2019-01-19T12:49:54.844Z,85.40
2019-01-19T12:52:25.013Z,84.94
2019-01-19T12:54:55.486Z,85.55
2019-01-19T12:57:25.613Z,86.21
2019-01-19T12:59:55.393Z,87.59
2019-01-19T13:02:25.320Z,88.23
2019-01-19T13:04:54.964Z,88.34
2019-01-19T13:07:25.114Z,88.56
2019-01-19T13:09:54.773Z,89.12
2019-01-19T13:12:24.581Z,89.23
2019-01-19T13:14:54.803Z,89.40
2019-01-19T13:17:25.169Z,89.68
2019-01-19T13:19:55.236Z,90.10
2019-01-19T13:22:25.326Z,90.80
2019-01-19T13:24:55.487Z,90.42
2019-01-19T13:27:25.595Z,90.32
2019-01-19T13:29:55.895Z,92.72
2019-01-19T13:32:25.888Z,94.37
2019-01-19T13:34:56.029Z,94.52
2019-01-19T13:37:26.188Z,95.48
2019-01-19T13:39:56.228Z,96.64
2019-01-19T13:42:26.328Z,96.95
2019-01-19T13:44:56.384Z,96.92
2019-01-19T13:47:26.485Z,97.18
2019-01-19T13:49:56.849Z,96.62
2019-01-19T13:52:27.265Z,96.04
2019-01-19T13:54:57.420Z,94.98
2019-01-19T13:57:28.071Z,95.73
2019-01-19T13:59:58.220Z,95.88
2019-01-19T14:02:28.103Z,95.56
2019-01-19T14:04:58.609Z,96.41
2019-01-19T14:07:28.627Z,95.73
2019-01-19T14:09:58.713Z,95.66
2019-01-19T14:12:28.544Z,96.47
2019-01-19T14:14:58.981Z,97.24
2019-01-19T14:17:28.890Z,96.79
2019-01-19T14:19:59.426Z,96.60
2019-01-19T14:22:29.681Z,96.03
2019-01-19T14:24:59.580Z,95.89
2019-01-19T14:27:29.685Z,96.17
2019-01-19T14:30:00.820Z,96.23
2019-01-19T14:32:30.950Z,96.31
2019-01-19T14:35:00.754Z,96.20
2019-01-19T14:37:31.061Z,96.67
2019-01-19T14:40:00.951Z,97.00
2019-01-19T14:42:30.737Z,97.99
2019-01-19T14:45:00.874Z,98.44
2019-01-19T14:47:30.954Z,98.76
2019-01-19T14:50:00.949Z,99.70
2019-01-19T14:52:30.867Z,100.00
2019-01-19T14:55:01.162Z,99.75
2019-01-19T14:57:30.909Z,99.27
2019-01-19T15:00:01.106Z,99.12
2019-01-19T15:02:31.450Z,99.87
2019-01-19T15:05:01.587Z,99.75
2019-01-19T15:07:31.558Z,99.52
2019-01-19T15:10:01.527Z,99.76
2019-01-19T15:12:31.450Z,99.63
2019-01-19T15:15:01.593Z,100.00
2019-01-19T15:17:31.882Z,100.00
2019-01-19T15:20:01.610Z,100.00
2019-01-19T15:22:31.475Z,100.00
2019-01-19T15:25:01.497Z,100.00
2019-01-19T15:27:31.627Z,100.00
2019-01-19T15:30:01.432Z,100.00
2019-01-19T15:32:31.863Z,100.00
2019-01-19T15:35:01.489Z,100.00
2019-01-19T15:37:31.275Z,100.00
2019-01-19T15:40:01.692Z,100.00
2019-01-19T15:42:31.730Z,100.00
2019-01-19T15:45:01.849Z,100.00
2019-01-19T15:47:32.270Z,100.00
2019-01-19T15:50:02.033Z,100.00
2019-01-19T15:52:32.048Z,100.00
2019-01-19T15:55:01.969Z,100.00
2019-01-19T15:57:32.215Z,100.00
2019-01-19T16:00:02.168Z,100.00
2019-01-19T16:02:32.168Z,100.00
2019-01-19T16:05:02.261Z,100.00
2019-01-19T16:07:32.501Z,100.00
2019-01-19T16:10:02.540Z,100.00
2019-01-19T16:12:33.053Z,100.00
2019-01-19T16:15:02.602Z,100.00
2019-01-19T16:17:32.884Z,100.00
2019-01-19T16:20:03.238Z,100.00
2019-01-19T16:22:32.797Z,100.00
2019-01-19T16:25:03.172Z,100.00
2019-01-19T16:27:33.748Z,100.00
2019-01-19T16:30:03.615Z,100.00
2019-01-19T16:32:33.344Z,100.00
2019-01-19T16:35:03.487Z,100.00
2019-01-19T16:37:33.741Z,100.00
2019-01-19T16:40:03.319Z,100.00
2019-01-19T16:42:32.999Z,100.00
2019-01-19T16:45:03.107Z,100.00
2019-01-19T16:47:33.183Z,100.00
2019-01-19T16:50:03.223Z,100.00
2019-01-19T16:52:33.093Z,100.00
2019-01-19T16:55:02.900Z,100.00
2019-01-19T16:57:32.960Z,100.00
2019-01-19T17:00:03.074Z,100.00
2019-01-19T17:02:33.210Z,100.00
2019-01-19T17:05:03.477Z,100.00
2019-01-19T17:07:33.510Z,100.00
2019-01-19T17:10:03.155Z,100.00
2019-01-19T17:12:33.332Z,100.00
2019-01-19T17:15:03.428Z,100.00
2019-01-19T17:17:33.157Z,100.00
2019-01-19T17:20:03.164Z,100.00
2019-01-19T17:22:33.315Z,100.00
2019-01-19T17:25:03.555Z,100.00
2019-01-19T17:27:33.494Z,100.00
2019-01-19T17:30:03.393Z,100.00
2019-01-19T17:32:33.375Z,100.00
2019-01-19T17:35:03.411Z,100.00
2019-01-19T17:37:33.507Z,100.00
2019-01-19T17:40:03.520Z,100.00
2019-01-19T17:42:33.517Z,100.00
2019-01-19T17:45:03.974Z,100.00
2019-01-19T17:47:34.041Z,100.00
2019-01-19T17:50:04.103Z,100.00
2019-01-19T17:52:34.330Z,100.00
2019-01-19T17:55:04.354Z,100.00
2019-01-19T17:57:34.473Z,100.00
2019-01-19T18:00:04.096Z,100.00
2019-01-19T18:02:34.081Z,100.00
2019-01-19T18:05:04.719Z,100.00
2019-01-19T18:07:35.282Z,100.00
2019-01-19T18:10:04.951Z,100.00
2019-01-19T18:12:35.301Z,100.00
2019-01-19T18:15:05.318Z,100.00
2019-01-19T18:17:35.002Z,100.00
2019-01-19T18:20:05.481Z,100.00
2019-01-19T18:22:35.241Z,100.00
2019-01-19T18:25:05.368Z,100.00
2019-01-19T18:27:35.402Z,100.00
2019-01-19T18:30:04.946Z,100.00
2019-01-19T18:32:34.955Z,100.00
2019-01-19T18:35:04.912Z,100.00
2019-01-19T18:37:35.389Z,100.00
2019-01-19T18:40:05.254Z,100.00
2019-01-19T18:42:35.255Z,100.00
2019-01-19T18:45:05.322Z,100.00
2019-01-19T18:47:34.999Z,100.00
2019-01-19T18:50:05.010Z,100.00
2019-01-19T18:52:34.972Z,100.00
2019-01-19T18:55:04.750Z,100.00
2019-01-19T18:57:34.544Z,100.00
2019-01-19T19:00:04.557Z,100.00
2019-01-19T19:02:34.645Z,100.00
2019-01-19T19:05:04.516Z,100.00
2019-01-19T19:07:34.720Z,100.00
2019-01-19T19:10:04.359Z,100.00
2019-01-19T19:12:34.658Z,100.00
2019-01-19T19:15:04.475Z,100.00
2019-01-19T19:17:35.208Z,100.00
2019-01-19T19:20:05.115Z,100.00
2019-01-19T19:22:34.921Z,100.00
2019-01-19T19:25:04.740Z,100.00
2019-01-19T19:27:34.862Z,100.00
2019-01-19T19:30:05.324Z,100.00
2019-01-19T19:32:35.578Z,100.00
2019-01-19T19:35:06.313Z,100.00
2019-01-19T19:37:35.855Z,100.00
2019-01-19T19:40:09.750Z,100.00
2019-01-19T19:42:36.890Z,100.00
2019-01-19T19:45:06.920Z,100.00
2019-01-19T19:47:37.007Z,100.00
2019-01-19T19:50:06.789Z,100.00
2019-01-19T19:52:36.879Z,100.00
2019-01-19T19:55:07.248Z,100.00
2019-01-19T19:57:36.882Z,100.00
2019-01-19T20:00:06.720Z,100.00
2019-01-19T20:02:36.863Z,100.00
2019-01-19T20:05:06.617Z,100.00
2019-01-19T20:07:37.003Z,100.00
2019-01-19T20:10:07.133Z,100.00
2019-01-19T20:12:37.164Z,100.00
2019-01-19T20:15:06.922Z,100.00
2019-01-19T20:17:36.836Z,100.00
2019-01-19T20:20:06.833Z,100.00
2019-01-19T20:22:36.518Z,100.00
2019-01-19T20:25:06.614Z,100.00
2019-01-19T20:27:36.677Z,100.00
2019-01-19T20:30:06.454Z,100.00
2019-01-19T20:32:36.355Z,100.00
2019-01-19T20:35:06.344Z,100.00
2019-01-19T20:37:36.340Z,100.00
2019-01-19T20:40:06.358Z,100.00
2019-01-19T20:42:36.541Z,100.00
2019-01-19T20:45:06.390Z,100.00
2019-01-19T20:47:36.723Z,100.00
2019-01-19T20:50:06.538Z,100.00
2019-01-19T20:52:36.547Z,100.00
2019-01-19T20:55:06.793Z,100.00
2019-01-19T20:57:37.020Z,100.00
2019-01-19T21:00:06.822Z,100.00
2019-01-19T21:02:37.179Z,100.00
2019-01-19T21:05:07.343Z,100.00
2019-01-19T21:07:37.577Z,100.00
2019-01-19T21:10:07.593Z,100.00
2019-01-19T21:12:37.823Z,100.00
2019-01-19T21:15:07.951Z,100.00
2019-01-19T21:17:37.969Z,100.00
2019-01-19T21:20:07.534Z,100.00
2019-01-19T21:22:38.112Z,100.00
2019-01-19T21:25:08.312Z,100.00
2019-01-19T21:27:38.598Z,100.00
2019-01-19T21:30:09.024Z,100.00
2019-01-19T21:32:39.108Z,100.00
2019-01-19T21:35:09.080Z,100.00
2019-01-19T21:37:38.838Z,100.00
2019-01-19T21:40:09.006Z,100.00
2019-01-19T21:42:38.919Z,100.00
2019-01-19T21:45:08.954Z,100.00
2019-01-19T21:47:39.247Z,100.00
2019-01-19T21:50:09.663Z,100.00
2019-01-19T21:52:39.701Z,100.00
2019-01-19T21:55:09.638Z,100.00
2019-01-19T21:57:39.943Z,100.00
2019-01-19T22:00:10.088Z,100.00
2019-01-19T22:02:40.703Z,100.00
2019-01-19T22:05:10.820Z,100.00
2019-01-19T22:07:40.844Z,100.00
2019-01-19T22:10:10.850Z,100.00
2019-01-19T22:12:41.001Z,100.00
2019-01-19T22:15:11.093Z,100.00
2019-01-19T22:17:41.402Z,100.00
2019-01-19T22:20:11.647Z,100.00
2019-01-19T22:22:41.771Z,100.00
2019-01-19T22:25:11.645Z,100.00
2019-01-19T22:27:41.370Z,100.00
2019-01-19T22:30:11.314Z,100.00
2019-01-19T22:32:41.428Z,100.00
2019-01-19T22:35:11.831Z,100.00
2019-01-19T22:37:42.136Z,100.00
2019-01-19T22:40:11.976Z,100.00
2019-01-19T22:42:41.876Z,100.00
2019-01-19T22:45:12.009Z,100.00
2019-01-19T22:47:42.167Z,100.00
2019-01-19T22:50:12.326Z,100.00
2019-01-19T22:52:42.358Z,100.00
2019-01-19T22:55:12.473Z,100.00
2019-01-19T22:57:42.621Z,100.00
2019-01-19T23:00:12.918Z,100.00
2019-01-19T23:02:43.066Z,100.00
2019-01-19T23:05:13.648Z,100.00
2019-01-19T23:07:44.049Z,100.00
2019-01-19T23:10:13.926Z,100.00
2019-01-19T23:12:44.017Z,100.00
2019-01-19T23:15:13.919Z,100.00
2019-01-19T23:17:44.180Z,100.00
2019-01-19T23:20:14.230Z,100.00
2019-01-19T23:22:44.528Z,100.00
2019-01-19T23:25:14.212Z,100.00
2019-01-19T23:27:44.461Z,100.00
2019-01-19T23:30:14.252Z,100.00
2019-01-19T23:32:44.577Z,100.00
2019-01-19T23:35:14.508Z,100.00
2019-01-19T23:37:44.803Z,100.00
2019-01-19T23:40:14.772Z,100.00
2019-01-19T23:42:47.381Z,100.00
2019-01-19T23:45:15.563Z,100.00
2019-01-19T23:47:45.693Z,100.00
2019-01-19T23:50:15.565Z,100.00
2019-01-19T23:52:45.842Z,100.00
2019-01-19T23:55:16.004Z,100.00
2019-01-19T23:57:46.400Z,100.00
